Time;durP1;ratioP1;P1;durP2;ratioP2;P2;SDS_P1;SDS_P2;PMS_P1;PMS_P2;Temp;Humidity;BMP_temperature;BMP_pressure;BME280_temperature;BME280_humidity;BME280_pressure;Samples;Min_cycle;Max_cycle;Signal;HPM_P1;HPM_P2
2022/12/02 00:00:49;;;;;;;;;;;;;;;;;;8401377;27;28608;-73
2022/12/02 00:04:49;;;;;;;;;;;;;;;;;;8422865;27;27315;-73
2022/12/02 00:08:50;;;;;;;;;;;;;;;;;;8423792;27;27762;-74
2022/12/02 00:12:50;;;;;;;;;;;;;;;;;;8398846;27;28143;-73
2022/12/02 00:16:50;;;;;;;;;;;;;;;;;;8403636;27;28976;-73
2022/12/02 00:20:50;;;;;;;;;;;;;;;;;;8419666;27;28405;-73
2022/12/02 00:24:50;;;;;;;;;;;;;;;;;;8402648;27;29743;-74
2022/12/02 00:28:50;;;;;;;;;;;;;;;;;;8422153;27;28138;-73
2022/12/02 00:32:50;;;;;;;;;;;;;;;;;;8424444;27;27671;-72
2022/12/02 00:36:50;;;;;;;;;;;;;;;;;;8408970;28;28235;-73
2022/12/02 00:40:50;;;;;;;;;;;;;;;;;;8425842;28;28189;-73
2022/12/02 00:49:09;;;;;;;;;;;;;;;;;;8420991;28;28097;-74
2022/12/02 00:53:09;;;;;;;;;;;;;;;;;;8426156;28;27799;-73
2022/12/02 00:57:09;;;;;;;;;;;;;;;;;;8410837;28;27305;-73
2022/12/02 01:01:10;;;;;;;;;;;;;;;;;;8426451;28;27823;-74
2022/12/02 01:05:10;;;;;;;;;;;;;;;;;;8409534;28;28636;-72
2022/12/02 01:09:10;;;;;;;;;;;;;;;;;;8410179;28;28374;-73
2022/12/02 01:13:10;;;;;;;;;;;;;;;;;;8409429;28;29592;-73
2022/12/02 01:17:10;;;;;;;;;;;;;;;;;;8425752;28;27094;-74
2022/12/02 01:21:10;;;;;;;;;;;;;;;;;;8426945;28;27608;-73
2022/12/02 01:25:12;;;;;;;;;;;;;;;;;;8406274;28;47910;-74
2022/12/02 01:29:12;;;;;;;;;;;;;;;;;;8424761;27;28645;-73
2022/12/02 01:33:12;;;;;;;;;;;;;;;;;;8405561;28;29363;-73
2022/12/02 01:37:12;;;;;;;;;;;;;;;;;;8406989;28;28667;-72
2022/12/02 01:41:13;;;;;;;;;;;;;;;;;;8424786;27;27390;-74
2022/12/02 01:45:13;;;;;;;;;;;;;;;;;;8406429;28;28740;-74
2022/12/02 01:49:13;;;;;;;;;;;;;;;;;;8423962;28;28545;-73
2022/12/02 01:53:13;;;;;;;;;;;;;;;;;;8401980;28;28893;-71
2022/12/02 01:57:13;;;;;;;;;;;;;;;;;;8424976;28;27348;-73
2022/12/02 02:01:13;;;;;;;;;;;;;;;;;;8424035;28;28071;-73
2022/12/02 02:05:13;;;;;;;;;;;;;;;;;;8424078;28;27472;-73
2022/12/02 02:09:13;;;;;;;;;;;;;;;;;;8415670;28;27695;-74
2022/12/02 02:13:13;;;;;;;;;;;;;;;;;;8428228;28;27362;-72
2022/12/02 02:17:13;;;;;;;;;;;;;;;;;;8400431;28;30132;-73
2022/12/02 02:21:13;;;;;;;;;;;;;;;;;;8424025;28;27279;-72
2022/12/02 02:25:13;;;;;;;;;;;;;;;;;;8423542;28;27486;-73
2022/12/02 02:29:14;;;;;;;;;;;;;;;;;;8409277;28;29531;-73
2022/12/02 02:33:14;;;;;;;;;;;;;;;;;;8427908;28;27439;-74
2022/12/02 02:37:14;;;;;;;;;;;;;;;;;;8427486;28;27345;-74
2022/12/02 02:41:14;;;;;;;;;;;;;;;;;;8408086;28;28373;-72
2022/12/02 02:45:14;;;;;;;;;;;;;;;;;;8426300;28;27361;-73
2022/12/02 02:49:14;;;;;;;;;;;;;;;;;;8425862;28;27445;-74
2022/12/02 02:53:14;;;;;;;;;;;;;;;;;;8422516;27;27327;-74
2022/12/02 02:57:14;;;;;;;;;;;;;;;;;;8424168;28;28124;-73
2022/12/02 03:01:14;;;;;;;;;;;;;;;;;;8426101;28;27474;-73
2022/12/02 03:05:15;;;;;;;;;;;;;;;;;;8426181;28;27332;-73
2022/12/02 03:09:15;;;;;;;;;;;;;;;;;;8425972;28;27346;-74
2022/12/02 03:13:15;;;;;;;;;;;;;;;;;;8423941;28;27434;-73
2022/12/02 03:17:15;;;;;;;;;;;;;;;;;;8405247;28;28667;-74
2022/12/02 03:21:15;;;;;;;;;;;;;;;;;;8425516;28;27394;-73
2022/12/02 03:25:15;;;;;;;;;;;;;;;;;;8421540;28;27221;-72
2022/12/02 03:29:15;;;;;;;;;;;;;;;;;;8407334;28;28900;-73
2022/12/02 03:33:15;;;;;;;;;;;;;;;;;;8427463;28;27151;-74
2022/12/02 03:37:15;;;;;;;;;;;;;;;;;;8425925;28;28525;-73
2022/12/02 03:41:15;;;;;;;;;;;;;;;;;;8426007;28;27393;-74
2022/12/02 03:45:15;;;;;;;;;;;;;;;;;;8406808;28;29507;-72
2022/12/02 03:49:15;;;;;;;;;;;;;;;;;;8403427;28;29205;-74
2022/12/02 03:53:16;;;;;;;;;;;;;;;;;;8420829;28;27471;-72
2022/12/02 03:57:16;;;;;;;;;;;;;;;;;;8425595;28;27853;-74
2022/12/02 04:01:16;;;;;;;;;;;;;;;;;;8424700;28;27401;-72
2022/12/02 04:05:16;;;;;;;;;;;;;;;;;;8421050;28;27257;-72
2022/12/02 04:09:16;;;;;;;;;;;;;;;;;;8412192;28;28605;-73
2022/12/02 04:13:16;;;;;;;;;;;;;;;;;;8429842;28;27301;-72
2022/12/02 04:17:16;;;;;;;;;;;;;;;;;;8423157;28;27345;-73
2022/12/02 04:21:16;;;;;;;;;;;;;;;;;;8429279;28;27540;-72
2022/12/02 04:25:16;;;;;;;;;;;;;;;;;;8427183;28;27398;-74
2022/12/02 04:29:16;;;;;;;;;;;;;;;;;;8425776;28;28793;-74
2022/12/02 04:33:17;;;;;;;;;;;;;;;;;;8431621;28;27314;-73
2022/12/02 04:37:17;;;;;;;;;;;;;;;;;;8419815;27;27224;-72
2022/12/02 04:41:17;;;;;;;;;;;;;;;;;;8420511;27;28148;-74
2022/12/02 04:45:17;;;;;;;;;;;;;;;;;;8406683;27;28258;-73
2022/12/02 04:49:17;;;;;;;;;;;;;;;;;;8418787;27;27657;-72
2022/12/02 04:53:17;;;;;;;;;;;;;;;;;;8423029;28;27408;-70
2022/12/02 04:57:17;;;;;;;;;;;;;;;;;;8422190;28;28335;-73
2022/12/02 05:01:18;;;;;;;;;;;;;;;;;;8420489;28;29028;-73
2022/12/02 05:05:18;;;;;;;;;;;;;;;;;;8423264;28;27454;-73
2022/12/02 05:09:18;;;;;;;;;;;;;;;;;;8409016;28;28483;-73
2022/12/02 05:13:18;;;;;;;;;;;;;;;;;;8409275;28;28583;-73
2022/12/02 05:17:18;;;;;;;;;;;;;;;;;;8423822;28;28478;-72
2022/12/02 05:21:18;;;;;;;;;;;;;;;;;;8422497;28;27194;-72
2022/12/02 05:25:18;;;;;;;;;;;;;;;;;;8401728;28;28569;-73
2022/12/02 05:29:18;;;;;;;;;;;;;;;;;;8423113;28;27359;-73
2022/12/02 05:33:19;;;;;;;;;;;;;;;;;;8422329;27;27673;-74
2022/12/02 05:37:19;;;;;;;;;;;;;;;;;;8424363;27;27739;-73
2022/12/02 05:41:19;;;;;;;;;;;;;;;;;;8423237;28;27650;-72
2022/12/02 05:45:19;;;;;;;;;;;;;;;;;;8420274;27;28873;-73
2022/12/02 05:49:19;;;;;;;;;;;;;;;;;;8420925;27;27597;-72
2022/12/02 05:53:19;;;;;;;;;;;;;;;;;;8407366;27;28191;-72
2022/12/02 05:57:19;;;;;;;;;;;;;;;;;;8423247;27;27476;-73
2022/12/02 06:01:20;;;;;;;;;;;;;;;;;;8426121;27;28228;-74
2022/12/02 06:05:20;;;;;;;;;;;;;;;;;;8406928;28;28777;-73
2022/12/02 06:09:20;;;;;;;;;;;;;;;;;;8424261;28;27422;-73
2022/12/02 06:13:20;;;;;;;;;;;;;;;;;;8426376;28;27770;-74
2022/12/02 06:17:20;;;;;;;;;;;;;;;;;;8425524;28;27741;-73
2022/12/02 06:21:20;;;;;;;;;;;;;;;;;;8426283;28;27895;-73
2022/12/02 06:25:20;;;;;;;;;;;;;;;;;;8425874;28;27334;-73
2022/12/02 06:29:20;;;;;;;;;;;;;;;;;;8427454;27;27415;-71
2022/12/02 06:33:20;;;;;;;;;;;;;;;;;;8409300;28;28609;-74
2022/12/02 06:37:20;;;;;;;;;;;;;;;;;;8426587;28;27317;-72
2022/12/02 06:41:20;;;;;;;;;;;;;;;;;;8426932;28;27790;-72
2022/12/02 06:45:20;;;;;;;;;;;;;;;;;;8406649;28;28273;-73
2022/12/02 06:49:21;;;;;;;;;;;;;;;;;;8406658;28;28864;-73
2022/12/02 06:53:21;;;;;;;;;;;;;;;;;;8405707;28;28550;-73
2022/12/02 06:57:21;;;;;;;;;;;;;;;;;;8425657;28;27343;-74
2022/12/02 07:01:21;;;;;;;;;;;;;;;;;;8423594;28;27477;-72
2022/12/02 07:05:21;;;;;;;;;;;;;;;;;;8423635;28;27604;-74
2022/12/02 07:09:21;;;;;;;;;;;;;;;;;;8426576;28;27266;-73
2022/12/02 07:13:21;;;;;;;;;;;;;;;;;;8426335;28;27464;-73
2022/12/02 07:17:22;;;;;;;;;;;;;;;;;;8409100;28;29076;-73
2022/12/02 07:21:22;;;;;;;;;;;;;;;;;;8426343;28;27853;-73
2022/12/02 07:25:22;;;;;;;;;;;;;;;;;;8420728;28;27396;-72
2022/12/02 07:29:22;;;;;;;;;;;;;;;;;;8424511;28;27263;-74
2022/12/02 07:33:22;;;;;;;;;;;;;;;;;;8426117;28;27260;-72
2022/12/02 07:37:22;;;;;;;;;;;;;;;;;;8425921;28;27384;-73
2022/12/02 07:41:22;;;;;;;;;;;;;;;;;;8428416;27;27960;-73
2022/12/02 07:45:22;;;;;;;;;;;;;;;;;;8430392;28;28373;-70
2022/12/02 07:49:22;;;;;;;;;;;;;;;;;;8426567;28;28464;-73
2022/12/02 07:53:23;;;;;;;;;;;;;;;;;;8408570;28;28265;-73
2022/12/02 07:57:23;;;;;;;;;;;;;;;;;;8427322;28;27520;-73
2022/12/02 08:01:23;;;;;;;;;;;;;;;;;;8423659;28;27520;-72
2022/12/02 08:05:23;;;;;;;;;;;;;;;;;;8428047;28;27495;-72
2022/12/02 08:09:23;;;;;;;;;;;;;;;;;;8408305;28;29083;-73
2022/12/02 08:13:23;;;;;;;;;;;;;;;;;;8426591;28;27463;-74
2022/12/02 08:17:23;;;;;;;;;;;;;;;;;;8429912;28;27375;-73
2022/12/02 08:21:24;;;;;;;;;;;;;;;;;;8427857;28;28381;-73
2022/12/02 08:25:24;;;;;;;;;;;;;;;;;;8411702;28;28454;-73
2022/12/02 08:29:24;;;;;;;;;;;;;;;;;;8429672;28;27337;-73
2022/12/02 08:33:24;;;;;;;;;;;;;;;;;;8430478;28;27350;-73
2022/12/02 08:37:24;;;;;;;;;;;;;;;;;;8428902;28;28002;-73
2022/12/02 08:41:24;;;;;;;;;;;;;;;;;;8429242;28;28234;-74
2022/12/02 08:45:24;;;;;;;;;;;;;;;;;;8429674;28;27479;-74
2022/12/02 08:49:24;;;;;;;;;;;;;;;;;;8429910;28;27615;-73
2022/12/02 08:53:24;;;;;;;;;;;;;;;;;;8429499;28;28413;-74
2022/12/02 08:57:24;;;;;;;;;;;;;;;;;;8430772;27;27836;-74
2022/12/02 09:01:24;;;;;;;;;;;;;;;;;;8425648;27;27770;-74
2022/12/02 09:05:24;;;;;;;;;;;;;;;;;;8425561;28;28650;-73
2022/12/02 09:09:24;;;;;;;;;;;;;;;;;;8422823;28;28467;-74
2022/12/02 09:13:25;;;;;;;;;;;;;;;;;;8424740;28;27172;-74
2022/12/02 09:17:25;;;;;;;;;;;;;;;;;;8425189;28;27511;-73
2022/12/02 09:21:25;;;;;;;;;;;;;;;;;;8409840;28;28508;-73
2022/12/02 09:25:25;;;;;;;;;;;;;;;;;;8426003;28;27361;-74
2022/12/02 09:29:25;;;;;;;;;;;;;;;;;;8423968;28;27341;-74
2022/12/02 09:33:25;;;;;;;;;;;;;;;;;;8424625;28;28702;-74
2022/12/02 09:37:25;;;;;;;;;;;;;;;;;;8405001;28;28517;-73
2022/12/02 09:41:25;;;;;;;;;;;;;;;;;;8424825;28;27842;-74
2022/12/02 09:45:25;;;;;;;;;;;;;;;;;;8422282;27;27478;-74
2022/12/02 09:49:25;;;;;;;;;;;;;;;;;;8423594;28;28541;-74
2022/12/02 09:53:25;;;;;;;;;;;;;;;;;;8404891;28;27810;-75
2022/12/02 09:57:25;;;;;;;;;;;;;;;;;;8425196;28;27447;-75
2022/12/02 10:01:26;;;;;;;;;;;;;;;;;;8406033;28;28091;-74
2022/12/02 10:05:26;;;;;;;;;;;;;;;;;;8406470;28;28782;-74
2022/12/02 10:09:26;;;;;;;;;;;;;;;;;;8426226;28;27443;-73
2022/12/02 10:13:26;;;;;;;;;;;;;;;;;;8426716;28;27410;-73
2022/12/02 10:17:26;;;;;;;;;;;;;;;;;;8422306;27;27645;-73
2022/12/02 10:21:26;;;;;;;;;;;;;;;;;;8403005;28;29452;-73
2022/12/02 10:25:26;;;;;;;;;;;;;;;;;;8419687;28;27432;-74
2022/12/02 10:29:29;;;;;;;;;;;;;;;;;;8422242;28;27529;-74
2022/12/02 10:33:29;;;;;;;;;;;;;;;;;;8420874;28;27497;-74
2022/12/02 10:37:29;;;;;;;;;;;;;;;;;;8420273;28;28698;-74
2022/12/02 10:41:29;;;;;;;;;;;;;;;;;;8405200;28;28817;-74
2022/12/02 10:45:30;;;;;;;;;;;;;;;;;;8403963;28;28158;-73
2022/12/02 10:49:30;;;;;;;;;;;;;;;;;;8419183;28;28157;-73
2022/12/02 10:53:30;;;;;;;;;;;;;;;;;;8403949;28;28444;-72
2022/12/02 10:57:30;;;;;;;;;;;;;;;;;;8398981;28;29047;-73
2022/12/02 11:01:30;;;;;;;;;;;;;;;;;;8403723;28;29720;-73
2022/12/02 11:05:30;;;;;;;;;;;;;;;;;;8422022;28;27308;-74
2022/12/02 11:09:30;;;;;;;;;;;;;;;;;;8404146;27;28805;-74
2022/12/02 11:13:30;;;;;;;;;;;;;;;;;;8408358;27;28443;-74
2022/12/02 11:17:30;;;;;;;;;;;;;;;;;;8424948;27;27250;-73
2022/12/02 11:21:30;;;;;;;;;;;;;;;;;;8419665;27;27385;-73
2022/12/02 11:25:30;;;;;;;;;;;;;;;;;;8425099;27;27483;-73
2022/12/02 11:29:31;;;;;;;;;;;;;;;;;;8406933;27;27225;-73
2022/12/02 11:33:31;;;;;;;;;;;;;;;;;;8421386;28;28901;-73
2022/12/02 11:37:37;;;;;;;;;;;;;;;;;;8424950;27;27157;-73
2022/12/02 11:41:37;;;;;;;;;;;;;;;;;;8424203;28;27586;-73
2022/12/02 11:45:37;;;;;;;;;;;;;;;;;;8422720;27;28433;-74
2022/12/02 11:49:38;;;;;;;;;;;;;;;;;;8423775;28;28496;-72
2022/12/02 11:53:39;;;;;;;;;;;;;;;;;;8407595;28;28748;-74
2022/12/02 11:57:39;;;;;;;;;;;;;;;;;;8425377;27;27273;-73
2022/12/02 12:01:39;;;;;;;;;;;;;;;;;;8407552;28;27582;-73
2022/12/02 12:05:39;;;;;;;;;;;;;;;;;;8417832;27;29688;-74
2022/12/02 12:09:39;;;;;;;;;;;;;;;;;;8406356;28;29093;-74
2022/12/02 12:13:39;;;;;;;;;;;;;;;;;;8405016;27;28585;-73
2022/12/02 12:17:39;;;;;;;;;;;;;;;;;;8418442;27;27764;-74
2022/12/02 12:21:41;;;;;;;;;;;;;;;;;;8399934;27;27228;-73
2022/12/02 12:25:41;;;;;;;;;;;;;;;;;;8438408;27;28598;-73
2022/12/02 12:29:41;;;;;;;;;;;;;;;;;;8428789;28;27366;-75
2022/12/02 12:33:41;;;;;;;;;;;;;;;;;;8427631;28;27454;-74
2022/12/02 12:37:41;;;;;;;;;;;;;;;;;;8410601;28;27513;-74
2022/12/02 12:41:41;;;;;;;;;;;;;;;;;;8442818;27;30054;-75
2022/12/02 12:45:41;;;;;;;;;;;;;;;;;;8411158;28;28240;-74
2022/12/02 12:49:42;;;;;;;;;;;;;;;;;;8425987;27;27800;-75
2022/12/02 12:53:42;;;;;;;;;;;;;;;;;;8424771;27;27361;-74
2022/12/02 12:57:42;;;;;;;;;;;;;;;;;;8428314;28;27323;-74
2022/12/02 13:01:43;;;;;;;;;;;;;;;;;;8426819;28;27171;-73
2022/12/02 13:05:43;;;;;;;;;;;;;;;;;;8428781;28;27909;-74
2022/12/02 13:09:43;;;;;;;;;;;;;;;;;;8425573;28;27243;-73
2022/12/02 13:13:43;;;;;;;;;;;;;;;;;;8411594;28;27544;-75
2022/12/02 13:17:43;;;;;;;;;;;;;;;;;;8409534;28;28323;-75
2022/12/02 13:21:44;;;;;;;;;;;;;;;;;;8444160;27;28575;-75
2022/12/02 13:25:44;;;;;;;;;;;;;;;;;;8423579;27;28203;-75
2022/12/02 13:29:44;;;;;;;;;;;;;;;;;;8427933;28;28220;-76
2022/12/02 13:33:44;;;;;;;;;;;;;;;;;;8410052;27;28406;-75
2022/12/02 13:37:44;;;;;;;;;;;;;;;;;;8426539;27;27567;-75
2022/12/02 13:41:44;;;;;;;;;;;;;;;;;;8425331;27;27505;-75
2022/12/02 13:45:44;;;;;;;;;;;;;;;;;;8427599;27;27298;-74
2022/12/02 13:49:44;;;;;;;;;;;;;;;;;;8424013;28;27400;-74
2022/12/02 13:53:44;;;;;;;;;;;;;;;;;;8427187;27;28815;-75
2022/12/02 13:57:44;;;;;;;;;;;;;;;;;;8426609;27;27817;-75
2022/12/02 14:01:44;;;;;;;;;;;;;;;;;;8425232;27;27631;-73
2022/12/02 14:05:45;;;;;;;;;;;;;;;;;;8428469;27;27741;-75
2022/12/02 14:09:45;;;;;;;;;;;;;;;;;;8426785;27;27510;-73
2022/12/02 14:13:45;;;;;;;;;;;;;;;;;;8407811;27;28665;-73
2022/12/02 14:17:45;;;;;;;;;;;;;;;;;;8427226;27;27433;-74
2022/12/02 14:21:45;;;;;;;;;;;;;;;;;;8412943;27;28688;-74
2022/12/02 14:25:45;;;;;;;;;;;;;;;;;;8423879;27;27630;-73
2022/12/02 14:29:45;;;;;;;;;;;;;;;;;;8427893;27;27219;-75
2022/12/02 14:33:45;;;;;;;;;;;;;;;;;;8425139;27;27286;-75
2022/12/02 14:37:45;;;;;;;;;;;;;;;;;;8404628;27;28784;-73
2022/12/02 14:41:45;;;;;;;;;;;;;;;;;;8426214;27;27596;-76
2022/12/02 14:45:46;;;;;;;;;;;;;;;;;;8420934;27;27816;-75
2022/12/02 14:49:46;;;;;;;;;;;;;;;;;;8408475;28;28471;-81
2022/12/02 14:53:46;;;;;;;;;;;;;;;;;;8411167;28;28613;-80
2022/12/02 14:57:46;;;;;;;;;;;;;;;;;;8432462;27;27739;-81
2022/12/02 15:01:46;;;;;;;;;;;;;;;;;;8432367;27;29099;-81
2022/12/02 15:05:46;;;;;;;;;;;;;;;;;;8429802;27;28366;-82
2022/12/02 15:09:46;;;;;;;;;;;;;;;;;;8431461;27;27343;-81
2022/12/02 15:13:46;;;;;;;;;;;;;;;;;;8424024;27;28712;-80
2022/12/02 15:17:46;;;;;;;;;;;;;;;;;;8410575;27;28754;-81
2022/12/02 15:21:46;;;;;;;;;;;;;;;;;;8394360;28;28976;-81
2022/12/02 15:25:47;;;;;;;;;;;;;;;;;;8398220;28;27226;-80
2022/12/02 15:29:47;;;;;;;;;;;;;;;;;;8379082;28;28700;-80
2022/12/02 15:33:47;;;;;;;;;;;;;;;;;;8382674;28;28766;-80
2022/12/02 15:37:47;;;;;;;;;;;;;;;;;;8382326;28;29088;-81
2022/12/02 15:41:47;;;;;;;;;;;;;;;;;;8397997;28;27433;-82
2022/12/02 15:45:47;;;;;;;;;;;;;;;;;;8393802;28;27351;-81
2022/12/02 15:49:47;;;;;;;;;;;;;;;;;;8389312;28;28435;-81
2022/12/02 15:53:47;;;;;;;;;;;;;;;;;;8388360;28;27346;-80
2022/12/02 15:57:47;;;;;;;;;;;;;;;;;;8390478;28;28242;-82
2022/12/02 16:01:47;;;;;;;;;;;;;;;;;;8388082;27;27321;-81
2022/12/02 16:05:47;;;;;;;;;;;;;;;;;;8381612;28;28533;-80
2022/12/02 16:09:48;;;;;;;;;;;;;;;;;;8393307;28;27948;-81
2022/12/02 16:13:51;;;;;;;;;;;;;;;;;;8377908;28;28936;-81
2022/12/02 16:17:51;;;;;;;;;;;;;;;;;;8375641;28;28882;-82
2022/12/02 16:21:51;;;;;;;;;;;;;;;;;;8398952;28;27680;-82
2022/12/02 16:25:51;;;;;;;;;;;;;;;;;;8377729;28;28824;-80
2022/12/02 16:29:51;;;;;;;;;;;;;;;;;;8394671;28;27588;-81
2022/12/02 16:33:51;;;;;;;;;;;;;;;;;;8381586;28;28691;-82
2022/12/02 16:37:51;;;;;;;;;;;;;;;;;;8389031;28;28518;-81
2022/12/02 16:41:52;;;;;;;;;;;;;;;;;;8389125;28;29735;-81
2022/12/02 16:45:52;;;;;;;;;;;;;;;;;;8376234;28;28875;-80
2022/12/02 16:49:52;;;;;;;;;;;;;;;;;;8376503;28;29005;-82
2022/12/02 16:53:52;;;;;;;;;;;;;;;;;;8379173;28;28614;-80
2022/12/02 16:57:52;;;;;;;;;;;;;;;;;;8378772;28;28689;-80
2022/12/02 17:01:52;;;;;;;;;;;;;;;;;;8390688;28;27827;-80
2022/12/02 17:05:52;;;;;;;;;;;;;;;;;;8404364;28;27913;-81
2022/12/02 17:09:52;;;;;;;;;;;;;;;;;;8377411;28;28762;-79
2022/12/02 17:13:52;;;;;;;;;;;;;;;;;;8392827;28;27665;-80
2022/12/02 17:17:52;;;;;;;;;;;;;;;;;;8398501;28;27170;-80
2022/12/02 17:21:53;;;;;;;;;;;;;;;;;;8421711;28;27295;-80
2022/12/02 17:25:53;;;;;;;;;;;;;;;;;;8430754;28;27395;-80
2022/12/02 17:29:53;;;;;;;;;;;;;;;;;;8434653;28;27338;-80
2022/12/02 17:33:53;;;;;;;;;;;;;;;;;;8412465;28;28756;-80
2022/12/02 17:37:53;;;;;;;;;;;;;;;;;;8428769;28;27401;-81
2022/12/02 17:41:53;;;;;;;;;;;;;;;;;;8416009;28;28648;-81
2022/12/02 17:45:53;;;;;;;;;;;;;;;;;;8412862;28;28449;-80
2022/12/02 17:49:53;;;;;;;;;;;;;;;;;;8434548;28;28183;-83
2022/12/02 17:53:53;;;;;;;;;;;;;;;;;;8430016;28;27333;-82
2022/12/02 17:57:53;;;;;;;;;;;;;;;;;;8432633;28;28878;-81
2022/12/02 18:01:53;;;;;;;;;;;;;;;;;;8430036;28;27949;-81
2022/12/02 18:05:53;;;;;;;;;;;;;;;;;;8431068;28;28345;-82
2022/12/02 18:09:54;;;;;;;;;;;;;;;;;;8428220;28;27494;-80
2022/12/02 18:13:54;;;;;;;;;;;;;;;;;;8424854;28;27462;-79
2022/12/02 18:17:54;;;;;;;;;;;;;;;;;;8429860;28;27876;-81
2022/12/02 18:21:54;;;;;;;;;;;;;;;;;;8429536;28;28616;-81
2022/12/02 18:25:54;;;;;;;;;;;;;;;;;;8433660;27;28168;-80
2022/12/02 18:29:54;;;;;;;;;;;;;;;;;;8430297;28;28731;-82
2022/12/02 18:33:54;;;;;;;;;;;;;;;;;;8432038;28;28573;-81
2022/12/02 18:37:54;;;;;;;;;;;;;;;;;;8427856;28;27174;-81
2022/12/02 18:41:54;;;;;;;;;;;;;;;;;;8411197;28;29687;-79
2022/12/02 18:45:54;;;;;;;;;;;;;;;;;;8430849;28;28540;-79
2022/12/02 18:49:55;;;;;;;;;;;;;;;;;;8430824;28;27697;-80
2022/12/02 18:53:55;;;;;;;;;;;;;;;;;;8430990;28;27327;-79
2022/12/02 18:57:55;;;;;;;;;;;;;;;;;;8429280;28;27519;-81
2022/12/02 19:01:55;;;;;;;;;;;;;;;;;;8414670;28;29463;-82
2022/12/02 19:05:55;;;;;;;;;;;;;;;;;;8438918;28;27146;-81
2022/12/02 19:09:55;;;;;;;;;;;;;;;;;;8435475;28;27368;-82
2022/12/02 19:13:55;;;;;;;;;;;;;;;;;;8436562;27;27366;-81
2022/12/02 19:17:55;;;;;;;;;;;;;;;;;;8438413;28;27405;-82
2022/12/02 19:21:55;;;;;;;;;;;;;;;;;;8433366;28;27252;-81
2022/12/02 19:25:55;;;;;;;;;;;;;;;;;;8432489;28;27412;-81
2022/12/02 19:29:56;;;;;;;;;;;;;;;;;;8436923;28;27651;-80
2022/12/02 19:33:56;;;;;;;;;;;;;;;;;;8437042;28;27477;-81
2022/12/02 19:37:56;;;;;;;;;;;;;;;;;;8422654;28;28859;-80
2022/12/02 19:41:56;;;;;;;;;;;;;;;;;;8446415;28;27321;-82
2022/12/02 19:45:56;;;;;;;;;;;;;;;;;;8447111;28;28264;-81
2022/12/02 19:49:56;;;;;;;;;;;;;;;;;;8422350;28;28858;-80
2022/12/02 19:53:57;;;;;;;;;;;;;;;;;;8443357;28;27375;-81
2022/12/02 19:57:57;;;;;;;;;;;;;;;;;;8443647;28;28512;-80
2022/12/02 20:01:57;;;;;;;;;;;;;;;;;;8440273;28;27426;-80
2022/12/02 20:05:59;;;;;;;;;;;;;;;;;;8439962;28;28737;-80
2022/12/02 20:09:59;;;;;;;;;;;;;;;;;;8426030;28;28970;-80
2022/12/02 20:13:59;;;;;;;;;;;;;;;;;;8443657;28;27783;-82
2022/12/02 20:17:59;;;;;;;;;;;;;;;;;;8443888;28;28799;-81
2022/12/02 20:21:59;;;;;;;;;;;;;;;;;;8445372;27;27256;-81
2022/12/02 20:25:59;;;;;;;;;;;;;;;;;;8446877;28;27187;-81
2022/12/02 20:30:02;;;;;;;;;;;;;;;;;;8439514;28;27201;-80
2022/12/02 20:38:39;;;;;;;;;;;;;;;;;;8333000;28;27436;-78
2022/12/02 20:42:39;;;;;;;;;;;;;;;;;;8415312;28;27320;-79
2022/12/02 20:46:39;;;;;;;;;;;;;;;;;;8440232;27;27942;-81
2022/12/02 20:50:39;;;;;;;;;;;;;;;;;;8440005;28;27423;-81
2022/12/02 20:54:39;;;;;;;;;;;;;;;;;;8440750;28;27223;-81
2022/12/02 20:58:40;;;;;;;;;;;;;;;;;;8418181;28;28285;-80
2022/12/02 21:02:40;;;;;;;;;;;;;;;;;;8436240;28;27460;-83
2022/12/02 21:06:40;;;;;;;;;;;;;;;;;;8414979;28;28461;-81
2022/12/02 21:10:40;;;;;;;;;;;;;;;;;;8418319;28;30052;-83
2022/12/02 21:14:40;;;;;;;;;;;;;;;;;;8413717;28;28948;-81
2022/12/02 21:18:40;;;;;;;;;;;;;;;;;;8410363;28;28774;-80
2022/12/02 21:22:40;;;;;;;;;;;;;;;;;;8412634;28;29822;-82
2022/12/02 21:26:40;;;;;;;;;;;;;;;;;;8431035;27;27230;-81
2022/12/02 21:30:41;;;;;;;;;;;;;;;;;;8434146;27;27317;-81
2022/12/02 21:34:41;;;;;;;;;;;;;;;;;;8417188;28;28786;-82
2022/12/02 21:38:41;;;;;;;;;;;;;;;;;;8428888;28;28191;-80
2022/12/02 21:42:42;;;;;;;;;;;;;;;;;;8415668;28;29641;-80
2022/12/02 21:46:42;;;;;;;;;;;;;;;;;;8428935;28;28646;-81
2022/12/02 21:50:42;;;;;;;;;;;;;;;;;;8413669;28;28883;-84
2022/12/02 21:54:43;;;;;;;;;;;;;;;;;;8429075;27;28481;-80
2022/12/02 21:58:43;;;;;;;;;;;;;;;;;;8412006;27;29904;-81
2022/12/02 22:02:43;;;;;;;;;;;;;;;;;;8417085;28;28644;-80
2022/12/02 22:06:43;;;;;;;;;;;;;;;;;;8432841;28;27427;-83
2022/12/02 22:10:43;;;;;;;;;;;;;;;;;;8410579;28;29779;-81
2022/12/02 22:14:43;;;;;;;;;;;;;;;;;;8432534;28;27294;-81
2022/12/02 22:18:43;;;;;;;;;;;;;;;;;;8431772;28;27496;-80
2022/12/02 22:22:43;;;;;;;;;;;;;;;;;;8429573;28;27393;-81
2022/12/02 22:26:44;;;;;;;;;;;;;;;;;;8432192;27;27171;-82
2022/12/02 22:30:44;;;;;;;;;;;;;;;;;;8411841;28;28472;-81
2022/12/02 22:34:44;;;;;;;;;;;;;;;;;;8412932;28;28829;-82
2022/12/02 22:38:44;;;;;;;;;;;;;;;;;;8437802;28;27240;-83
2022/12/02 22:42:44;;;;;;;;;;;;;;;;;;8421069;28;28865;-81
2022/12/02 22:46:44;;;;;;;;;;;;;;;;;;8434907;28;28461;-80
2022/12/02 22:50:44;;;;;;;;;;;;;;;;;;8436320;28;27185;-80
2022/12/02 22:54:44;;;;;;;;;;;;;;;;;;8436030;28;27132;-80
2022/12/02 22:58:44;;;;;;;;;;;;;;;;;;8434072;28;28633;-80
2022/12/02 23:02:44;;;;;;;;;;;;;;;;;;8436282;28;27453;-80
2022/12/02 23:06:44;;;;;;;;;;;;;;;;;;8434619;28;28542;-82
2022/12/02 23:10:44;;;;;;;;;;;;;;;;;;8413032;28;29599;-81
2022/12/02 23:14:45;;;;;;;;;;;;;;;;;;8421774;28;28574;-81
2022/12/02 23:18:45;;;;;;;;;;;;;;;;;;8435643;28;27423;-81
2022/12/02 23:22:45;;;;;;;;;;;;;;;;;;8420579;28;29006;-80
2022/12/02 23:26:45;;;;;;;;;;;;;;;;;;8419598;28;28524;-79
2022/12/02 23:30:45;;;;;;;;;;;;;;;;;;8415666;28;28758;-79
2022/12/02 23:34:45;;;;;;;;;;;;;;;;;;8412580;28;28875;-79
2022/12/02 23:38:45;;;;;;;;;;;;;;;;;;8433454;28;28307;-81
2022/12/02 23:42:45;;;;;;;;;;;;;;;;;;8433916;28;27392;-82
2022/12/02 23:46:45;;;;;;;;;;;;;;;;;;8416870;28;28436;-81
2022/12/02 23:50:46;;;;;;;;;;;;;;;;;;8432222;28;27350;-79
2022/12/02 23:54:46;;;;;;;;;;;;;;;;;;8430823;28;28646;-80
2022/12/02 23:58:46;;;;;;;;;;;;;;;;;;8434171;28;27702;-80
